Time;durP1;ratioP1;P1;durP2;ratioP2;P2;SDS_P1;SDS_P2;PMS_P1;PMS_P2;Temp;Humidity;BMP_temperature;BMP_pressure;BME280_temperature;BME280_humidity;BME280_pressure;Samples;Min_cycle;Max_cycle;Signal;HPM_P1;HPM_P2
2022/04/19 00:01:20;;;;;;;11.68;8.50;;;8.50;99.90;;;;;;4932355;29;20446;-91
2022/04/19 00:03:45;;;;;;;12.13;7.72;;;8.40;99.90;;;;;;4917727;29;20392;-91
2022/04/19 00:06:11;;;;;;;11.07;7.43;;;8.40;99.90;;;;;;4943952;29;20048;-92
2022/04/19 00:08:37;;;;;;;11.63;7.05;;;8.30;99.90;;;;;;4935105;29;20040;-93
2022/04/19 00:11:03;;;;;;;12.40;8.32;;;8.30;99.90;;;;;;4915473;29;20383;-92
2022/04/19 00:13:30;;;;;;;10.48;8.35;;;8.10;99.90;;;;;;4913946;29;20052;-92
2022/04/19 00:15:56;;;;;;;10.70;7.90;;;8.20;99.90;;;;;;4932227;29;20424;-91
2022/04/19 00:18:23;;;;;;;11.32;8.30;;;8.10;99.90;;;;;;4932782;29;20055;-92
2022/04/19 00:20:49;;;;;;;11.15;8.38;;;8.10;99.90;;;;;;4932415;29;20405;-91
2022/04/19 00:23:15;;;;;;;10.07;6.70;;;8.10;99.90;;;;;;4935189;29;20062;-92
2022/04/19 00:25:46;;;;;;;11.57;7.45;;;8.00;99.90;;;;;;4933253;29;20122;-91
2022/04/19 00:28:12;;;;;;;11.88;6.60;;;8.00;99.90;;;;;;4935098;29;20044;-92
2022/04/19 00:30:38;;;;;;;11.63;9.02;;;7.90;99.90;;;;;;4931382;29;20454;-91
2022/04/19 00:33:04;;;;;;;12.23;9.18;;;7.90;99.90;;;;;;4914367;29;20032;-91
2022/04/19 00:35:30;;;;;;;12.82;8.23;;;7.90;99.90;;;;;;4932431;29;20048;-92
2022/04/19 00:37:56;;;;;;;11.65;9.35;;;7.80;99.90;;;;;;4931343;29;20054;-92
2022/04/19 00:40:21;;;;;;;13.25;8.48;;;7.80;99.90;;;;;;4915504;29;20127;-92
2022/04/19 00:42:47;;;;;;;11.52;9.05;;;7.70;99.90;;;;;;4930719;29;20103;-92
2022/04/19 00:45:13;;;;;;;12.77;8.15;;;7.70;99.90;;;;;;4914767;29;20417;-91
2022/04/19 00:47:39;;;;;;;12.90;8.10;;;7.60;99.90;;;;;;4931430;29;20055;-91
2022/04/19 00:50:06;;;;;;;11.68;8.43;;;7.60;99.90;;;;;;4932731;29;20390;-92
2022/04/19 00:52:34;;;;;;;13.50;10.00;;;7.50;99.90;;;;;;4914752;29;20135;-90
2022/04/19 00:55:01;;;;;;;14.95;8.85;;;7.60;99.90;;;;;;4931434;29;20098;-92
2022/04/19 00:57:27;;;;;;;11.68;8.00;;;7.50;99.90;;;;;;4915623;29;20047;-92
2022/04/19 00:59:55;;;;;;;13.93;8.13;;;7.40;99.90;;;;;;4938809;29;20139;-91
2022/04/19 01:02:22;;;;;;;12.18;8.77;;;7.40;99.90;;;;;;4930669;29;20258;-91
2022/04/19 01:04:49;;;;;;;12.77;9.30;;;7.30;99.90;;;;;;4931180;29;20055;-91
2022/04/19 01:07:18;;;;;;;13.48;8.52;;;7.30;99.90;;;;;;4898901;29;20057;-91
2022/04/19 01:09:48;;;;;;;13.45;9.30;;;7.30;99.90;;;;;;4931548;29;20056;-91
2022/04/19 01:15:03;;;;;;;14.10;8.13;;;7.20;99.90;;;;;;4931390;29;20060;-91
2022/04/19 01:17:29;;;;;;;12.40;9.90;;;7.20;99.90;;;;;;4914853;29;20054;-92
2022/04/19 01:19:55;;;;;;;11.35;7.53;;;7.20;99.90;;;;;;4914592;29;20489;-92
2022/04/19 01:22:20;;;;;;;12.57;7.72;;;7.10;99.90;;;;;;4902513;29;20047;-92
2022/04/19 01:24:46;;;;;;;11.82;6.82;;;7.10;99.90;;;;;;4914443;29;20052;-92
2022/04/19 01:27:13;;;;;;;12.35;7.18;;;7.00;99.90;;;;;;4931392;29;20398;-92
2022/04/19 01:29:39;;;;;;;10.10;6.20;;;6.90;99.90;;;;;;4915251;29;20051;-92
2022/04/19 01:32:06;;;;;;;12.20;9.63;;;6.90;99.90;;;;;;4930421;29;20063;-92
2022/04/19 01:34:32;;;;;;;11.45;7.57;;;7.00;99.90;;;;;;4923831;29;20122;-92
2022/04/19 01:36:58;;;;;;;13.32;10.38;;;6.90;99.90;;;;;;4920530;29;20239;-91
2022/04/19 01:42:08;;;;;;;12.43;8.00;;;6.90;99.90;;;;;;4934491;29;20051;-92
2022/04/19 01:44:34;;;;;;;12.93;9.55;;;6.90;99.90;;;;;;4935982;29;20059;-92
2022/04/19 01:47:01;;;;;;;12.52;7.38;;;6.90;99.90;;;;;;4934825;29;20044;-92
2022/04/19 01:49:27;;;;;;;11.50;9.55;;;6.80;99.90;;;;;;4936267;29;20044;-92
2022/04/19 01:51:53;;;;;;;13.68;7.85;;;6.80;99.90;;;;;;4947635;29;20044;-92
2022/04/19 01:54:18;;;;;;;13.55;10.45;;;6.80;99.90;;;;;;4934520;29;20387;-92
2022/04/19 01:56:44;;;;;;;14.45;9.05;;;6.80;99.90;;;;;;4935528;29;20058;-93
2022/04/19 01:59:11;;;;;;;15.35;8.15;;;6.80;99.90;;;;;;4935788;29;20481;-92
2022/04/19 02:01:37;;;;;;;14.15;7.22;;;6.70;99.90;;;;;;4938918;29;20054;-91
2022/04/19 02:04:03;;;;;;;13.27;7.55;;;6.60;99.90;;;;;;4945438;29;20043;-92
2022/04/19 02:06:30;;;;;;;13.45;10.27;;;6.60;99.90;;;;;;4937835;29;20056;-93
2022/04/19 02:08:56;;;;;;;11.77;6.57;;;6.70;99.90;;;;;;4945707;29;20031;-92
2022/04/19 02:11:21;;;;;;;12.55;6.80;;;6.60;99.90;;;;;;4943229;29;20259;-92
2022/04/19 02:13:47;;;;;;;12.02;7.50;;;6.50;99.90;;;;;;4927624;29;20048;-92
2022/04/19 02:16:12;;;;;;;13.23;8.02;;;6.40;99.90;;;;;;4935436;29;20039;-91
2022/04/19 02:18:38;;;;;;;12.52;8.48;;;6.40;99.90;;;;;;4959221;28;20019;-93
2022/04/19 02:21:03;;;;;;;15.18;7.60;;;6.40;99.90;;;;;;4909153;29;20131;-92
2022/04/19 02:23:29;;;;;;;11.55;7.20;;;6.30;99.90;;;;;;4935483;29;20040;-92
2022/04/19 02:25:55;;;;;;;12.48;7.75;;;6.30;99.90;;;;;;4935749;29;20058;-92
2022/04/19 02:28:22;;;;;;;13.45;9.95;;;6.20;99.90;;;;;;4918610;29;20039;-92
2022/04/19 02:30:48;;;;;;;11.65;7.38;;;6.20;99.90;;;;;;4918268;29;20167;-92
2022/04/19 02:33:13;;;;;;;11.73;7.28;;;6.10;99.90;;;;;;4916712;29;20062;-92
2022/04/19 02:35:40;;;;;;;12.50;7.88;;;6.10;99.90;;;;;;4934724;29;20044;-91
2022/04/19 02:38:06;;;;;;;12.70;7.75;;;6.00;99.90;;;;;;4934293;29;20043;-92
2022/04/19 02:40:31;;;;;;;11.82;6.88;;;5.90;99.90;;;;;;4935236;29;20413;-92
2022/04/19 02:42:57;;;;;;;13.57;7.18;;;5.90;99.90;;;;;;4916689;29;20449;-90
2022/04/19 02:45:24;;;;;;;11.30;7.30;;;5.80;99.90;;;;;;4933882;29;20055;-91
2022/04/19 02:48:03;;;;;;;14.25;7.82;;;5.80;99.90;;;;;;4916118;29;20050;-91
2022/04/19 02:50:50;;;;;;;11.77;7.38;;;5.70;99.90;;;;;;4901160;29;20054;-91
2022/04/19 02:53:15;;;;;;;11.75;7.05;;;5.70;99.90;;;;;;4934425;29;20402;-91
2022/04/19 02:55:41;;;;;;;10.95;6.63;;;5.70;99.90;;;;;;4933172;29;20043;-92
2022/04/19 02:58:07;;;;;;;12.40;6.78;;;5.60;99.90;;;;;;4918790;29;20430;-92
2022/04/19 03:00:33;;;;;;;11.20;7.15;;;5.70;99.90;;;;;;4933793;29;20078;-92
2022/04/19 03:02:58;;;;;;;10.98;6.10;;;5.60;99.90;;;;;;4915651;29;20040;-91
2022/04/19 03:05:24;;;;;;;13.10;6.90;;;5.50;99.90;;;;;;4933260;29;20520;-91
2022/04/19 03:07:49;;;;;;;11.25;6.63;;;5.50;99.90;;;;;;4932973;29;20047;-92
2022/04/19 03:10:16;;;;;;;12.00;6.70;;;5.50;99.90;;;;;;4933091;29;20309;-91
2022/04/19 03:12:43;;;;;;;12.80;6.20;;;5.50;99.90;;;;;;4933503;29;20130;-91
2022/04/19 03:15:11;;;;;;;11.82;6.28;;;5.40;99.90;;;;;;4932806;29;20134;-91
2022/04/19 03:17:38;;;;;;;13.68;6.45;;;5.30;99.90;;;;;;4933235;29;20052;-91
2022/04/19 03:20:08;;;;;;;13.27;6.88;;;5.30;99.90;;;;;;4933835;29;20043;-91
2022/04/19 03:28:06;;;;;;;13.93;6.65;;;5.30;99.90;;;;;;4935248;29;20047;-90
2022/04/19 03:30:31;;;;;;;12.55;7.10;;;5.30;99.90;;;;;;4932019;29;20044;-90
2022/04/19 03:32:57;;;;;;;12.07;6.45;;;5.30;99.90;;;;;;4933549;29;20050;-91
2022/04/19 03:35:23;;;;;;;12.48;6.40;;;5.30;99.90;;;;;;4932785;29;20496;-91
2022/04/19 03:37:48;;;;;;;12.05;6.82;;;5.30;99.90;;;;;;4916193;29;20410;-91
2022/04/19 03:40:14;;;;;;;10.88;6.47;;;5.40;99.90;;;;;;4930288;29;20055;-91
2022/04/19 03:42:43;;;;;;;12.18;6.57;;;5.40;99.90;;;;;;4917096;29;20409;-90
2022/04/19 03:45:09;;;;;;;11.25;6.15;;;5.30;99.90;;;;;;4932057;29;20039;-92
2022/04/19 03:47:35;;;;;;;11.32;6.25;;;5.30;99.90;;;;;;4933759;29;20098;-92
2022/04/19 03:50:01;;;;;;;11.30;6.10;;;5.20;99.90;;;;;;4928800;29;20796;-91
2022/04/19 03:52:27;;;;;;;13.95;7.03;;;5.10;99.90;;;;;;4933901;29;20229;-91
2022/04/19 03:54:53;;;;;;;12.23;6.65;;;5.10;99.90;;;;;;4931379;29;20055;-92
2022/04/19 03:57:19;;;;;;;9.88;6.28;;;5.00;99.90;;;;;;4919648;29;20047;-91
2022/04/19 03:59:44;;;;;;;11.82;6.32;;;5.00;99.90;;;;;;4944413;29;20142;-91
2022/04/19 04:02:10;;;;;;;11.93;6.65;;;4.90;99.90;;;;;;4935207;29;20075;-91
2022/04/19 04:04:36;;;;;;;11.75;7.00;;;4.90;99.90;;;;;;4932167;29;20103;-90
2022/04/19 04:07:06;;;;;;;12.40;7.57;;;4.90;99.90;;;;;;4932910;29;20047;-91
2022/04/19 04:09:33;;;;;;;15.50;8.40;;;4.90;99.90;;;;;;4914587;29;20043;-91
2022/04/19 04:12:02;;;;;;;12.63;7.22;;;4.90;99.90;;;;;;4933125;29;20055;-91
2022/04/19 04:14:29;;;;;;;14.35;8.65;;;4.90;99.90;;;;;;4932435;29;20569;-91
2022/04/19 04:16:55;;;;;;;12.48;7.40;;;4.90;99.90;;;;;;4933068;29;20049;-91
2022/04/19 04:19:21;;;;;;;13.80;8.32;;;4.90;99.90;;;;;;4898454;29;20444;-91
2022/04/19 04:21:46;;;;;;;14.00;8.43;;;5.00;99.90;;;;;;4931821;29;20504;-91
2022/04/19 04:24:12;;;;;;;15.27;8.23;;;5.00;99.90;;;;;;4931626;29;20058;-91
2022/04/19 04:26:37;;;;;;;13.73;8.48;;;5.10;99.90;;;;;;4934387;29;20047;-91
2022/04/19 04:29:03;;;;;;;16.23;7.53;;;5.10;99.90;;;;;;4912571;29;20405;-91
2022/04/19 04:31:29;;;;;;;16.15;8.35;;;5.10;99.90;;;;;;4932132;29;20052;-91
2022/04/19 04:33:54;;;;;;;15.70;9.05;;;5.20;99.90;;;;;;4930835;29;20051;-90
2022/04/19 04:36:20;;;;;;;15.60;8.93;;;5.20;99.90;;;;;;4932196;29;20047;-90
2022/04/19 04:38:46;;;;;;;13.52;7.22;;;5.20;99.90;;;;;;4931099;29;20047;-91
2022/04/19 04:41:12;;;;;;;14.32;9.20;;;5.20;99.90;;;;;;4899145;29;20130;-91
2022/04/19 04:43:39;;;;;;;14.93;8.45;;;5.30;99.90;;;;;;4930753;29;20124;-92
2022/04/19 04:51:34;;;;;;;14.57;8.85;;;5.40;99.90;;;;;;4927620;29;20055;-88
2022/04/19 04:53:59;;;;;;;13.75;8.23;;;5.50;99.90;;;;;;4924824;29;20043;-89
2022/04/19 04:56:25;;;;;;;13.43;7.93;;;5.50;99.90;;;;;;4932538;29;20048;-89
2022/04/19 04:58:50;;;;;;;14.02;8.73;;;5.50;99.90;;;;;;4929430;29;20039;-89
2022/04/19 05:01:16;;;;;;;16.05;9.15;;;5.60;99.90;;;;;;4928776;29;20044;-91
2022/04/19 05:03:42;;;;;;;14.35;8.40;;;5.60;99.90;;;;;;4931684;29;20050;-92
2022/04/19 05:06:07;;;;;;;14.43;8.95;;;5.60;99.90;;;;;;4927123;29;20503;-90
2022/04/19 05:08:33;;;;;;;15.95;8.82;;;5.70;99.90;;;;;;4951613;29;20035;-90
2022/04/19 05:10:58;;;;;;;14.77;8.98;;;5.70;99.90;;;;;;4933778;29;20117;-91
2022/04/19 05:13:24;;;;;;;14.65;8.82;;;5.90;99.90;;;;;;4923738;29;20060;-90
2022/04/19 05:15:49;;;;;;;15.27;9.32;;;6.00;99.90;;;;;;4925611;29;20048;-90
2022/04/19 05:18:15;;;;;;;15.95;9.15;;;6.00;99.90;;;;;;4914935;29;20044;-92
2022/04/19 05:20:42;;;;;;;13.75;8.32;;;6.10;99.90;;;;;;4902630;29;20048;-91
2022/04/19 05:23:08;;;;;;;15.02;9.55;;;6.20;99.90;;;;;;4917682;29;20038;-91
2022/04/19 05:25:34;;;;;;;15.05;9.55;;;6.30;99.90;;;;;;4898201;29;20410;-92
2022/04/19 05:27:59;;;;;;;14.93;9.38;;;6.40;99.90;;;;;;4914644;29;20040;-92
2022/04/19 05:30:25;;;;;;;14.50;8.73;;;6.40;99.90;;;;;;4913189;29;20052;-92
2022/04/19 05:32:50;;;;;;;13.25;7.55;;;6.50;99.90;;;;;;4916267;29;20066;-90
2022/04/19 05:35:16;;;;;;;14.82;9.70;;;6.60;99.90;;;;;;4915384;29;20220;-93
2022/04/19 05:37:41;;;;;;;14.15;9.80;;;6.70;99.90;;;;;;4868941;29;20095;-88
2022/04/19 05:40:08;;;;;;;14.77;8.63;;;6.80;99.90;;;;;;4926283;29;20044;-92
2022/04/19 05:42:33;;;;;;;15.48;9.80;;;6.90;99.90;;;;;;4915995;29;20032;-91
2022/04/19 05:44:59;;;;;;;16.33;10.15;;;7.00;99.90;;;;;;4912626;29;20169;-90
2022/04/19 05:47:24;;;;;;;16.23;9.40;;;7.10;99.90;;;;;;4913788;29;20048;-90
2022/04/19 05:49:51;;;;;;;15.05;11.93;;;7.20;99.90;;;;;;4896993;29;20115;-89
2022/04/19 05:52:17;;;;;;;13.65;9.80;;;7.30;99.90;;;;;;4917559;29;20067;-90
2022/04/19 05:54:43;;;;;;;16.77;10.30;;;7.40;99.90;;;;;;4924524;29;20040;-91
2022/04/19 05:57:11;;;;;;;14.07;9.27;;;7.50;99.90;;;;;;4926526;29;20300;-91
2022/04/19 05:59:37;;;;;;;15.15;9.48;;;7.60;99.90;;;;;;4899002;29;20048;-92
2022/04/19 06:04:54;;;;;;;15.20;12.45;;;7.80;99.90;;;;;;4914904;29;20075;-96
2022/04/19 06:07:23;;;;;;;14.93;12.20;;;8.00;99.90;;;;;;4918899;29;20099;-90
2022/04/19 06:09:49;;;;;;;15.20;9.98;;;8.10;99.90;;;;;;4901718;29;20048;-92
2022/04/19 06:12:15;;;;;;;14.55;9.75;;;8.30;99.90;;;;;;4915306;29;20532;-91
2022/04/19 06:14:41;;;;;;;15.07;11.70;;;8.30;99.90;;;;;;4925322;29;20468;-89
2022/04/19 06:17:07;;;;;;;14.27;10.07;;;8.50;99.90;;;;;;4917537;29;20089;-89
2022/04/19 06:19:33;;;;;;;15.90;11.68;;;8.60;99.90;;;;;;4916833;29;20130;-90
2022/04/19 06:22:01;;;;;;;14.38;9.88;;;8.80;99.90;;;;;;4933579;29;20122;-90
2022/04/19 06:24:26;;;;;;;12.90;11.05;;;8.90;99.90;;;;;;4932748;29;20039;-89
2022/04/19 06:26:52;;;;;;;13.75;11.23;;;9.10;99.90;;;;;;4933914;29;20624;-90
2022/04/19 06:29:18;;;;;;;13.48;11.43;;;9.20;99.90;;;;;;4935776;29;20039;-90
2022/04/19 06:31:46;;;;;;;13.90;10.27;;;9.30;99.90;;;;;;4933874;29;20055;-89
2022/04/19 06:34:12;;;;;;;13.15;9.70;;;9.50;99.90;;;;;;4900514;29;20052;-92
2022/04/19 06:36:38;;;;;;;13.70;10.27;;;9.60;99.90;;;;;;4917796;29;20396;-90
2022/04/19 06:39:04;;;;;;;13.80;10.18;;;9.70;99.90;;;;;;4919070;29;20039;-90
2022/04/19 06:41:29;;;;;;;14.52;10.00;;;9.90;99.90;;;;;;4914515;29;20090;-89
2022/04/19 06:43:58;;;;;;;13.25;9.75;;;10.00;99.90;;;;;;4926674;29;20033;-90
2022/04/19 06:46:26;;;;;;;12.77;9.38;;;10.20;99.90;;;;;;4917567;29;20047;-90
2022/04/19 06:48:59;;;;;;;14.25;10.02;;;10.20;99.90;;;;;;4932828;29;20046;-90
2022/04/19 06:51:25;;;;;;;14.88;10.13;;;10.40;99.90;;;;;;4933540;29;20059;-90
2022/04/19 06:53:51;;;;;;;13.73;10.30;;;10.50;99.90;;;;;;4932998;29;20071;-92
2022/04/19 06:56:17;;;;;;;14.38;10.38;;;10.60;99.90;;;;;;4935622;29;20082;-89
2022/04/19 06:58:44;;;;;;;14.15;9.70;;;10.70;99.90;;;;;;4898041;29;20088;-90
2022/04/19 07:01:10;;;;;;;12.40;9.30;;;10.80;99.90;;;;;;4914983;29;20399;-90
2022/04/19 07:03:36;;;;;;;14.82;9.77;;;10.90;99.90;;;;;;4916119;29;20119;-89
2022/04/19 07:06:03;;;;;;;13.60;9.60;;;11.00;99.90;;;;;;4899736;29;20056;-90
2022/04/19 07:08:29;;;;;;;11.93;9.18;;;11.10;99.90;;;;;;4916856;29;20062;-90
2022/04/19 07:10:56;;;;;;;13.65;10.07;;;11.30;99.90;;;;;;4932461;29;20056;-88
2022/04/19 07:13:22;;;;;;;13.50;9.75;;;11.40;99.90;;;;;;4913973;29;20103;-89
2022/04/19 07:15:48;;;;;;;13.75;9.38;;;11.50;99.90;;;;;;4913520;29;20048;-89
2022/04/19 07:18:15;;;;;;;11.95;9.57;;;11.60;99.90;;;;;;4914076;29;20103;-89
2022/04/19 07:28:52;;;;;;;13.15;9.30;;;12.00;99.90;;;;;;4914033;29;20115;-88
2022/04/19 07:31:19;;;;;;;12.48;9.38;;;12.10;99.90;;;;;;4913872;29;20036;-89
2022/04/19 07:33:45;;;;;;;13.05;9.57;;;12.20;99.90;;;;;;4912861;29;20044;-89
2022/04/19 07:36:11;;;;;;;12.18;9.02;;;12.20;99.90;;;;;;4913421;29;20044;-89
2022/04/19 07:38:37;;;;;;;12.15;9.05;;;12.40;99.90;;;;;;4912912;29;20050;-90
2022/04/19 07:41:03;;;;;;;13.07;9.07;;;12.40;99.90;;;;;;4913314;29;20397;-89
2022/04/19 07:43:29;;;;;;;12.25;8.60;;;12.50;99.90;;;;;;4896978;29;20047;-90
2022/04/19 07:45:54;;;;;;;12.52;8.30;;;12.70;99.90;;;;;;4914100;29;20048;-87
2022/04/19 07:48:20;;;;;;;11.40;8.25;;;12.70;99.90;;;;;;4907857;29;20041;-89
2022/04/19 07:50:46;;;;;;;11.40;8.00;;;12.80;99.90;;;;;;4901566;29;20046;-90
2022/04/19 07:53:11;;;;;;;11.32;8.50;;;12.90;99.90;;;;;;4913513;29;20054;-89
2022/04/19 07:55:37;;;;;;;11.55;7.45;;;13.00;99.90;;;;;;4897486;29;20422;-89
2022/04/19 07:58:04;;;;;;;11.05;7.68;;;13.10;99.90;;;;;;4914559;29;20078;-90
2022/04/19 08:00:30;;;;;;;10.70;7.13;;;13.20;99.90;;;;;;4921064;29;20055;-90
2022/04/19 08:02:56;;;;;;;11.00;7.93;;;13.30;99.90;;;;;;4911074;29;20524;-90
2022/04/19 08:05:23;;;;;;;12.13;8.13;;;13.50;99.90;;;;;;4921031;29;20051;-90
2022/04/19 08:07:50;;;;;;;10.95;7.63;;;13.50;99.90;;;;;;4924142;29;20040;-90
2022/04/19 08:10:16;;;;;;;10.55;7.85;;;13.70;99.90;;;;;;4912319;29;20378;-92
2022/04/19 08:12:42;;;;;;;12.68;7.30;;;13.80;99.90;;;;;;4919214;29;20047;-89
2022/04/19 08:15:08;;;;;;;11.25;7.70;;;13.90;99.90;;;;;;4933452;29;20064;-89
2022/04/19 08:17:34;;;;;;;11.68;8.07;;;13.90;99.90;;;;;;4916151;29;20044;-91
2022/04/19 08:20:01;;;;;;;11.25;7.97;;;14.00;99.90;;;;;;4914296;29;20054;-91
2022/04/19 08:22:27;;;;;;;10.50;7.68;;;14.10;99.90;;;;;;4915722;29;20047;-89
2022/04/19 08:24:52;;;;;;;11.68;8.55;;;14.10;99.90;;;;;;4914695;29;20461;-89
2022/04/19 08:27:18;;;;;;;12.18;8.57;;;14.10;99.90;;;;;;4915262;29;20047;-90
2022/04/19 08:29:44;;;;;;;10.13;7.50;;;14.20;99.90;;;;;;4916653;29;20114;-91
2022/04/19 08:32:10;;;;;;;10.27;7.43;;;14.30;99.90;;;;;;4931278;29;20098;-90
2022/04/19 08:34:35;;;;;;;13.63;7.80;;;14.40;99.90;;;;;;4915132;29;20509;-90
2022/04/19 08:37:02;;;;;;;11.32;8.10;;;14.40;99.90;;;;;;4913747;29;20479;-92
2022/04/19 08:39:28;;;;;;;11.00;7.72;;;14.50;99.90;;;;;;4933300;29;20043;-88
2022/04/19 08:41:54;;;;;;;11.55;8.10;;;14.50;99.90;;;;;;4930402;29;20457;-91
2022/04/19 08:44:20;;;;;;;11.35;7.82;;;14.60;99.90;;;;;;4914698;29;20043;-91
2022/04/19 08:46:46;;;;;;;10.82;6.70;;;14.60;99.90;;;;;;4914163;29;20083;-89
2022/04/19 08:49:12;;;;;;;11.60;7.45;;;14.60;99.90;;;;;;4916015;29;20047;-89
2022/04/19 08:51:40;;;;;;;12.40;7.20;;;14.60;99.90;;;;;;4915680;29;20481;-91
2022/04/19 08:59:37;;;;;;;9.27;6.15;;;14.60;99.90;;;;;;4930004;29;20191;-93
2022/04/19 09:02:04;;;;;;;10.38;6.28;;;14.70;99.00;;;;;;4915043;29;20094;-91
2022/04/19 09:04:30;;;;;;;13.25;6.07;;;14.70;98.00;;;;;;4916769;29;20087;-89
2022/04/19 09:06:59;;;;;;;10.77;5.78;;;14.80;97.60;;;;;;4915880;29;20532;-90
2022/04/19 09:09:26;;;;;;;9.73;4.93;;;14.90;96.70;;;;;;4918535;29;20108;-90
2022/04/19 09:11:53;;;;;;;8.45;4.05;;;15.00;96.10;;;;;;4930860;29;20072;-96
2022/04/19 09:14:19;;;;;;;7.85;3.92;;;15.00;94.20;;;;;;4935188;29;20390;-91
2022/04/19 09:16:46;;;;;;;8.65;4.50;;;15.10;92.70;;;;;;4933314;29;20052;-92
2022/04/19 09:19:28;;;;;;;8.15;3.95;;;15.10;92.50;;;;;;4932293;29;20456;-94
2022/04/19 09:21:54;;;;;;;7.72;3.60;;;15.10;80.40;;;;;;4931584;29;20060;-92
2022/04/19 09:24:21;;;;;;;5.78;2.60;;;15.10;85.30;;;;;;4914608;29;20047;-88
2022/04/19 09:26:48;;;;;;;6.82;3.20;;;15.20;81.40;;;;;;4931453;29;20043;-90
2022/04/19 09:29:18;;;;;;;7.13;2.65;;;15.30;81.00;;;;;;4933659;29;20059;-92
2022/04/19 09:31:43;;;;;;;6.88;2.85;;;15.40;68.80;;;;;;4931345;29;20608;-91
2022/04/19 09:34:09;;;;;;;6.90;3.38;;;15.50;67.40;;;;;;4931652;29;20056;-93
2022/04/19 09:36:36;;;;;;;7.00;2.95;;;15.50;67.40;;;;;;4915057;29;20075;-90
2022/04/19 09:39:24;;;;;;;6.03;3.00;;;15.50;64.10;;;;;;4932133;29;20536;-91
2022/04/19 09:42:00;;;;;;;6.05;2.53;;;15.50;58.10;;;;;;4946643;29;20051;-90
2022/04/19 09:44:25;;;;;;;7.00;2.85;;;15.50;61.40;;;;;;4940770;29;20067;-90
2022/04/19 09:47:09;;;;;;;7.00;2.50;;;15.50;61.60;;;;;;4914348;29;20051;-88
2022/04/19 09:49:49;;;;;;;6.90;2.83;;;15.60;54.90;;;;;;4914958;29;20052;-91
2022/04/19 09:52:21;;;;;;;8.85;2.50;;;15.60;56.30;;;;;;4931912;29;20044;-91
2022/04/19 09:55:08;;;;;;;5.85;2.40;;;15.60;54.30;;;;;;4914856;29;20051;-88
2022/04/19 09:57:37;;;;;;;6.35;2.42;;;15.70;58.00;;;;;;4898401;29;20126;-89
2022/04/19 10:00:07;;;;;;;7.07;2.70;;;15.90;58.50;;;;;;4912108;29;20515;-88
2022/04/19 10:08:23;;;;;;;6.10;2.55;;;16.00;57.30;;;;;;4916827;29;20048;-91
2022/04/19 10:10:51;;;;;;;6.30;2.63;;;16.10;54.60;;;;;;4929943;29;20039;-91
2022/04/19 10:13:18;;;;;;;5.35;2.03;;;16.20;55.60;;;;;;4935603;29;20413;-92
2022/04/19 10:15:44;;;;;;;5.18;2.00;;;16.10;52.50;;;;;;4938368;29;20150;-92
2022/04/19 10:18:10;;;;;;;4.95;2.42;;;16.20;52.00;;;;;;4917617;29;20122;-90
2022/04/19 10:20:46;;;;;;;5.72;2.35;;;16.20;51.90;;;;;;4935117;29;20401;-88
2022/04/19 10:23:12;;;;;;;5.78;2.30;;;16.20;52.60;;;;;;4917830;29;20405;-92
2022/04/19 10:25:44;;;;;;;4.70;1.90;;;16.20;52.80;;;;;;4933431;29;20043;-88
2022/04/19 10:28:26;;;;;;;10.57;2.20;;;16.40;52.50;;;;;;4935348;29;20047;-88
2022/04/19 10:30:53;;;;;;;4.50;1.58;;;16.30;47.60;;;;;;4935269;29;20123;-88
2022/04/19 10:33:48;;;;;;;5.38;2.28;;;16.30;50.00;;;;;;4916753;29;20052;-86
2022/04/19 10:36:34;;;;;;;4.47;1.67;;;16.30;50.00;;;;;;4916294;29;20098;-88
2022/04/19 10:39:13;;;;;;;5.35;1.88;;;16.40;49.40;;;;;;4933018;29;20556;-90
2022/04/19 10:41:55;;;;;;;3.92;1.73;;;16.40;48.40;;;;;;4916288;29;20326;-95
2022/04/19 10:44:26;;;;;;;6.30;2.10;;;16.50;50.30;;;;;;4917247;29;20092;-89
2022/04/19 10:47:15;;;;;;;4.63;2.10;;;16.50;50.50;;;;;;4917647;29;20394;-91
2022/04/19 10:50:07;;;;;;;5.43;2.42;;;16.50;52.00;;;;;;4935211;29;20114;-91
2022/04/19 10:52:44;;;;;;;;;;;16.50;52.20;;;;;;4920203;29;20051;-89
2022/04/19 10:55:23;;;;;;;5.28;2.30;;;16.50;51.20;;;;;;4925977;29;19989;-89
2022/04/19 10:58:12;;;;;;;6.95;2.20;;;16.60;53.10;;;;;;4939846;29;20510;-90
2022/04/19 11:00:40;;;;;;;3.95;1.88;;;16.70;51.40;;;;;;4944774;29;20462;-91
2022/04/19 11:03:38;;;;;;;5.00;1.90;;;16.70;52.30;;;;;;4924011;29;20056;-92
2022/04/19 11:06:28;;;;;;;5.13;1.98;;;16.70;50.80;;;;;;4901158;29;20442;-93
2022/04/19 11:09:17;;;;;;;5.80;1.77;;;16.70;52.00;;;;;;4920454;29;20132;-90
2022/04/19 11:11:47;;;;;;;4.68;1.90;;;16.80;50.70;;;;;;4916662;29;20048;-90
2022/04/19 11:14:21;;;;;;;7.45;2.20;;;16.90;51.10;;;;;;4936077;29;20239;-92
2022/04/19 11:16:50;;;;;;;4.10;2.00;;;17.00;51.50;;;;;;4916728;29;20179;-91
2022/04/19 11:19:25;;;;;;;4.47;1.88;;;17.10;52.30;;;;;;4916521;29;20352;-91
2022/04/19 11:21:59;;;;;;;5.32;2.20;;;17.20;53.60;;;;;;4932489;29;20114;-93
2022/04/19 11:25:03;;;;;;;5.88;2.58;;;17.30;51.50;;;;;;4933605;29;20047;-90
2022/04/19 11:27:53;;;;;;;5.30;2.63;;;17.20;51.60;;;;;;4933800;29;20401;-90
2022/04/19 11:30:20;;;;;;;5.65;2.30;;;17.00;50.70;;;;;;4915928;29;20059;-92
2022/04/19 11:32:55;;;;;;;4.85;2.22;;;17.00;52.50;;;;;;4917171;29;20051;-91
2022/04/19 11:35:21;;;;;;;4.85;2.30;;;17.10;52.50;;;;;;4917670;29;20063;-93
2022/04/19 11:37:46;;;;;;;5.00;2.30;;;17.20;54.40;;;;;;4934040;29;20032;-91
2022/04/19 11:48:48;;;;;;;5.05;2.13;;;17.20;52.70;;;;;;4916529;29;20450;-93
2022/04/19 11:51:15;;;;;;;7.40;2.65;;;17.30;52.90;;;;;;4918101;29;20449;-91
2022/04/19 11:53:43;;;;;;;5.28;2.53;;;17.40;53.60;;;;;;4932439;29;21247;-91
2022/04/19 11:56:08;;;;;;;5.35;2.47;;;17.40;53.20;;;;;;4934118;29;20126;-90
2022/04/19 11:58:36;;;;;;;4.75;2.40;;;17.40;53.30;;;;;;4917325;29;20565;-92
2022/04/19 12:01:05;;;;;;;4.65;2.20;;;17.40;54.30;;;;;;4933220;29;20055;-93
2022/04/19 12:03:38;;;;;;;4.88;2.17;;;17.50;54.30;;;;;;4916782;29;20035;-92
2022/04/19 12:06:16;;;;;;;5.25;2.20;;;17.50;53.50;;;;;;4932419;29;20051;-92
2022/04/19 12:08:43;;;;;;;4.63;2.53;;;17.50;53.70;;;;;;4934479;29;20048;-92
2022/04/19 12:11:13;;;;;;;7.03;2.90;;;17.70;53.70;;;;;;4933783;29;20059;-93
2022/04/19 12:13:42;;;;;;;6.20;2.80;;;17.70;52.30;;;;;;4929854;29;20059;-92
2022/04/19 12:16:34;;;;;;;6.07;2.90;;;17.60;52.50;;;;;;4901739;29;20067;-90
2022/04/19 12:19:12;;;;;;;5.63;2.78;;;17.60;51.80;;;;;;4896285;29;20409;-92
2022/04/19 12:21:44;;;;;;;5.22;2.80;;;17.50;53.10;;;;;;4913026;29;20048;-94
2022/04/19 12:24:21;;;;;;;7.75;2.50;;;17.50;53.40;;;;;;4897259;29;20055;-92
2022/04/19 12:27:06;;;;;;;6.22;2.15;;;17.60;53.90;;;;;;4896711;29;20074;-91
2022/04/19 12:29:35;;;;;;;8.15;3.22;;;17.60;51.30;;;;;;4915283;29;20052;-91
2022/04/19 12:32:03;;;;;;;5.88;2.50;;;17.60;52.40;;;;;;4913535;29;20049;-92
2022/04/19 12:34:36;;;;;;;6.65;3.13;;;17.60;52.20;;;;;;4915538;29;20098;-91
2022/04/19 12:37:12;;;;;;;6.20;3.22;;;17.60;52.70;;;;;;4913393;29;20054;-93
2022/04/19 12:39:39;;;;;;;8.02;3.75;;;17.60;51.50;;;;;;4897172;29;20044;-93
2022/04/19 12:42:09;;;;;;;7.57;3.17;;;17.50;52.00;;;;;;4896479;29;20052;-95
2022/04/19 12:44:37;;;;;;;9.07;3.30;;;17.50;52.20;;;;;;4898275;29;20044;-93
2022/04/19 12:47:25;;;;;;;7.22;3.20;;;17.40;52.30;;;;;;4896311;29;20056;-91
2022/04/19 12:49:51;;;;;;;7.90;3.50;;;17.50;53.70;;;;;;4896654;29;20114;-91
2022/04/19 12:52:16;;;;;;;7.10;3.58;;;17.50;53.00;;;;;;4900799;29;20462;-90
2022/04/19 12:54:46;;;;;;;7.25;3.17;;;17.60;53.10;;;;;;4903481;29;20409;-93
2022/04/19 12:57:14;;;;;;;5.38;2.42;;;17.60;53.10;;;;;;4906009;29;20048;-91
2022/04/19 12:59:40;;;;;;;5.72;3.10;;;17.60;52.50;;;;;;4916236;29;20055;-92
2022/04/19 13:02:06;;;;;;;7.20;3.50;;;17.50;51.50;;;;;;4895339;29;20055;-91
2022/04/19 13:04:31;;;;;;;7.63;3.75;;;17.60;51.20;;;;;;4915905;29;20052;-93
2022/04/19 13:12:27;;;;;;;6.75;2.90;;;17.50;51.60;;;;;;4913979;29;20048;-92
2022/04/19 13:15:00;;;;;;;6.22;2.60;;;17.50;50.70;;;;;;4930244;29;20048;-92
2022/04/19 13:17:30;;;;;;;6.90;2.70;;;17.50;51.70;;;;;;4933374;29;20048;-89
2022/04/19 13:19:56;;;;;;;5.88;2.78;;;17.60;51.30;;;;;;4931719;29;20047;-91
2022/04/19 13:22:21;;;;;;;7.93;3.65;;;17.60;50.70;;;;;;4933012;29;20051;-91
2022/04/19 13:24:47;;;;;;;6.07;3.05;;;17.60;51.40;;;;;;4932580;29;20107;-92
2022/04/19 13:27:13;;;;;;;6.22;2.85;;;17.60;50.50;;;;;;4916908;29;20047;-90
2022/04/19 13:29:40;;;;;;;6.35;2.80;;;17.60;50.50;;;;;;4931672;29;20122;-92
2022/04/19 13:32:07;;;;;;;6.28;3.30;;;17.60;50.50;;;;;;4933066;29;20051;-93
2022/04/19 13:34:33;;;;;;;6.05;2.83;;;17.60;51.20;;;;;;4937141;29;20051;-92
2022/04/19 13:37:00;;;;;;;6.43;3.20;;;17.60;51.00;;;;;;4937448;29;20385;-93
2022/04/19 13:39:26;;;;;;;6.47;3.25;;;17.60;51.20;;;;;;4937603;29;20142;-91
2022/04/19 13:41:52;;;;;;;6.03;2.97;;;17.70;52.00;;;;;;4933667;29;20497;-90
2022/04/19 13:44:19;;;;;;;6.20;3.17;;;17.60;52.30;;;;;;4934096;29;20082;-93